sensor_id;sensor_type;location;lat;lon;timestamp;pressure;altitude;pressure_sealevel;temperature;humidity
72124;BME280;63818;37.134;-8.548;2023-01-28T00:03:48;101672.6;;;12.0;48.1
72124;BME280;63818;37.134;-8.548;2023-01-28T00:08:34;101675.1;;;12.0;47.8
72124;BME280;63818;37.134;-8.548;2023-01-28T00:13:21;101665.0;;;12.0;47.4
72124;BME280;63818;37.134;-8.548;2023-01-28T00:18:06;101670.1;;;12.1;47.3
72124;BME280;63818;37.134;-8.548;2023-01-28T00:22:55;101665.0;;;12.1;47.0
72124;BME280;63818;37.134;-8.548;2023-01-28T00:27:44;101673.6;;;12.0;47.2
72124;BME280;63818;37.134;-8.548;2023-01-28T00:32:29;101669.1;;;12.0;47.3
72124;BME280;63818;37.134;-8.548;2023-01-28T00:37:19;101659.8;;;11.9;47.3
72124;BME280;63818;37.134;-8.548;2023-01-28T00:42:05;101667.8;;;12.0;47.1
72124;BME280;63818;37.134;-8.548;2023-01-28T00:46:51;101655.7;;;12.1;46.4
72124;BME280;63818;37.134;-8.548;2023-01-28T00:51:55;101652.9;;;12.2;46.4
72124;BME280;63818;37.134;-8.548;2023-01-28T00:56:41;101659.4;;;12.2;45.9
72124;BME280;63818;37.134;-8.548;2023-01-28T01:01:27;101645.1;;;12.2;46.1
72124;BME280;63818;37.134;-8.548;2023-01-28T01:06:14;101651.4;;;12.1;46.1
72124;BME280;63818;37.134;-8.548;2023-01-28T01:11:01;101643.0;;;12.1;46.0
72124;BME280;63818;37.134;-8.548;2023-01-28T01:15:47;101658.4;;;12.1;46.0
72124;BME280;63818;37.134;-8.548;2023-01-28T01:20:33;101657.6;;;12.1;45.8
72124;BME280;63818;37.134;-8.548;2023-01-28T01:25:22;101654.4;;;12.1;45.8
72124;BME280;63818;37.134;-8.548;2023-01-28T01:30:09;101646.6;;;12.1;45.8
72124;BME280;63818;37.134;-8.548;2023-01-28T01:34:56;101659.0;;;12.1;45.9
72124;BME280;63818;37.134;-8.548;2023-01-28T01:39:43;101664.1;;;12.1;46.0
72124;BME280;63818;37.134;-8.548;2023-01-28T01:44:59;101652.9;;;12.0;46.1
72124;BME280;63818;37.134;-8.548;2023-01-28T01:49:51;101659.1;;;11.6;47.2
72124;BME280;63818;37.134;-8.548;2023-01-28T01:54:40;101672.3;;;11.6;47.5
72124;BME280;63818;37.134;-8.548;2023-01-28T01:59:30;101662.2;;;11.7;46.9
72124;BME280;63818;37.134;-8.548;2023-01-28T02:04:25;101668.2;;;11.7;47.4
72124;BME280;63818;37.134;-8.548;2023-01-28T02:09:23;101671.9;;;11.8;47.1
72124;BME280;63818;37.134;-8.548;2023-01-28T02:14:22;101666.0;;;11.7;47.0
72124;BME280;63818;37.134;-8.548;2023-01-28T02:19:09;101668.9;;;11.6;47.2
72124;BME280;63818;37.134;-8.548;2023-01-28T02:24:12;101675.2;;;11.5;47.4
72124;BME280;63818;37.134;-8.548;2023-01-28T02:29:04;101672.2;;;11.5;47.6
72124;BME280;63818;37.134;-8.548;2023-01-28T02:33:55;101678.0;;;11.6;47.4
72124;BME280;63818;37.134;-8.548;2023-01-28T02:38:46;101665.4;;;11.4;47.5
72124;BME280;63818;37.134;-8.548;2023-01-28T02:43:36;101666.8;;;11.6;47.4
72124;BME280;63818;37.134;-8.548;2023-01-28T02:48:28;101659.3;;;11.5;47.1
72124;BME280;63818;37.134;-8.548;2023-01-28T02:53:21;101660.5;;;11.6;46.8
72124;BME280;63818;37.134;-8.548;2023-01-28T02:58:15;101662.5;;;11.5;47.0
72124;BME280;63818;37.134;-8.548;2023-01-28T03:03:10;101670.0;;;11.6;46.4
72124;BME280;63818;37.134;-8.548;2023-01-28T03:08:11;101682.2;;;11.5;46.6
72124;BME280;63818;37.134;-8.548;2023-01-28T03:13:03;101683.3;;;11.5;46.7
72124;BME280;63818;37.134;-8.548;2023-01-28T03:17:53;101677.1;;;11.5;46.8
72124;BME280;63818;37.134;-8.548;2023-01-28T03:22:45;101683.0;;;11.4;46.7
72124;BME280;63818;37.134;-8.548;2023-01-28T03:27:42;101673.6;;;11.5;46.9
72124;BME280;63818;37.134;-8.548;2023-01-28T03:32:31;101670.7;;;11.4;46.9
72124;BME280;63818;37.134;-8.548;2023-01-28T03:37:18;101664.6;;;11.4;46.6
72124;BME280;63818;37.134;-8.548;2023-01-28T03:42:08;101687.8;;;11.3;46.8
72124;BME280;63818;37.134;-8.548;2023-01-28T03:46:54;101686.5;;;11.3;46.9
72124;BME280;63818;37.134;-8.548;2023-01-28T03:51:40;101678.9;;;11.3;47.1
72124;BME280;63818;37.134;-8.548;2023-01-28T03:56:26;101672.8;;;11.3;47.2
72124;BME280;63818;37.134;-8.548;2023-01-28T04:01:13;101677.3;;;11.3;47.2
72124;BME280;63818;37.134;-8.548;2023-01-28T04:06:01;101681.7;;;11.2;47.4
72124;BME280;63818;37.134;-8.548;2023-01-28T04:10:47;101685.0;;;11.2;47.5
72124;BME280;63818;37.134;-8.548;2023-01-28T04:15:34;101697.9;;;11.2;47.5
72124;BME280;63818;37.134;-8.548;2023-01-28T04:20:21;101685.8;;;11.2;47.4
72124;BME280;63818;37.134;-8.548;2023-01-28T04:25:10;101693.4;;;11.1;47.2
72124;BME280;63818;37.134;-8.548;2023-01-28T04:29:56;101688.0;;;11.1;47.1
72124;BME280;63818;37.134;-8.548;2023-01-28T04:34:45;101684.7;;;11.0;47.2
72124;BME280;63818;37.134;-8.548;2023-01-28T04:39:31;101692.2;;;11.0;46.9
72124;BME280;63818;37.134;-8.548;2023-01-28T04:44:17;101689.5;;;11.0;47.0
72124;BME280;63818;37.134;-8.548;2023-01-28T04:49:07;101696.3;;;10.9;47.1
72124;BME280;63818;37.134;-8.548;2023-01-28T04:53:54;101702.2;;;10.9;47.2
72124;BME280;63818;37.134;-8.548;2023-01-28T04:58:39;101694.9;;;10.8;47.6
72124;BME280;63818;37.134;-8.548;2023-01-28T05:03:26;101683.6;;;10.8;47.7
72124;BME280;63818;37.134;-8.548;2023-01-28T05:08:17;101692.4;;;10.8;47.8
72124;BME280;63818;37.134;-8.548;2023-01-28T05:13:03;101682.2;;;10.8;47.5
72124;BME280;63818;37.134;-8.548;2023-01-28T05:17:52;101701.5;;;10.9;47.4
72124;BME280;63818;37.134;-8.548;2023-01-28T05:22:41;101693.4;;;10.9;47.4
72124;BME280;63818;37.134;-8.548;2023-01-28T05:27:26;101698.6;;;10.8;47.4
72124;BME280;63818;37.134;-8.548;2023-01-28T05:32:12;101690.5;;;10.8;47.2
72124;BME280;63818;37.134;-8.548;2023-01-28T05:37:00;101693.2;;;10.8;47.1
72124;BME280;63818;37.134;-8.548;2023-01-28T05:41:46;101703.4;;;10.8;47.2
72124;BME280;63818;37.134;-8.548;2023-01-28T05:46:35;101691.9;;;10.7;47.4
72124;BME280;63818;37.134;-8.548;2023-01-28T05:51:21;101704.8;;;10.8;47.2
72124;BME280;63818;37.134;-8.548;2023-01-28T05:56:08;101711.5;;;10.7;47.0
72124;BME280;63818;37.134;-8.548;2023-01-28T06:01:00;101708.2;;;10.5;47.2
72124;BME280;63818;37.134;-8.548;2023-01-28T06:05:46;101701.0;;;10.5;47.5
72124;BME280;63818;37.134;-8.548;2023-01-28T06:10:32;101713.6;;;10.6;47.6
72124;BME280;63818;37.134;-8.548;2023-01-28T06:15:18;101714.1;;;10.2;48.5
72124;BME280;63818;37.134;-8.548;2023-01-28T06:20:11;101715.4;;;9.9;48.9
72124;BME280;63818;37.134;-8.548;2023-01-28T06:24:57;101703.4;;;9.8;49.7
72124;BME280;63818;37.134;-8.548;2023-01-28T06:29:48;101715.3;;;9.7;49.9
72124;BME280;63818;37.134;-8.548;2023-01-28T06:34:35;101715.9;;;9.6;49.5
72124;BME280;63818;37.134;-8.548;2023-01-28T06:39:21;101713.2;;;9.6;49.0
72124;BME280;63818;37.134;-8.548;2023-01-28T06:44:08;101719.7;;;9.5;49.0
72124;BME280;63818;37.134;-8.548;2023-01-28T06:48:54;101724.8;;;9.4;49.0
72124;BME280;63818;37.134;-8.548;2023-01-28T06:53:45;101729.9;;;9.4;49.0
72124;BME280;63818;37.134;-8.548;2023-01-28T06:58:32;101736.3;;;9.4;49.0
72124;BME280;63818;37.134;-8.548;2023-01-28T07:03:27;101731.2;;;9.4;48.9
72124;BME280;63818;37.134;-8.548;2023-01-28T07:08:14;101719.2;;;9.4;49.1
72124;BME280;63818;37.134;-8.548;2023-01-28T07:13:00;101730.4;;;9.4;48.8
72124;BME280;63818;37.134;-8.548;2023-01-28T07:17:50;101728.8;;;9.4;49.0
72124;BME280;63818;37.134;-8.548;2023-01-28T07:22:37;101729.9;;;9.4;48.7
72124;BME280;63818;37.134;-8.548;2023-01-28T07:27:27;101728.0;;;9.5;48.3
72124;BME280;63818;37.134;-8.548;2023-01-28T07:32:14;101748.1;;;9.4;48.2
72124;BME280;63818;37.134;-8.548;2023-01-28T07:36:59;101752.4;;;9.2;48.5
72124;BME280;63818;37.134;-8.548;2023-01-28T07:41:49;101758.1;;;9.2;48.4
72124;BME280;63818;37.134;-8.548;2023-01-28T07:46:38;101777.7;;;9.2;48.3
72124;BME280;63818;37.134;-8.548;2023-01-28T07:51:24;101783.0;;;9.3;48.0
72124;BME280;63818;37.134;-8.548;2023-01-28T07:56:10;101776.6;;;9.3;47.5
72124;BME280;63818;37.134;-8.548;2023-01-28T08:00:57;101779.7;;;9.5;47.4
72124;BME280;63818;37.134;-8.548;2023-01-28T08:05:45;101776.5;;;9.5;46.8
72124;BME280;63818;37.134;-8.548;2023-01-28T08:10:35;101784.2;;;9.6;46.6
72124;BME280;63818;37.134;-8.548;2023-01-28T08:15:26;101784.0;;;9.5;46.8
72124;BME280;63818;37.134;-8.548;2023-01-28T08:20:12;101797.1;;;9.6;46.6
72124;BME280;63818;37.134;-8.548;2023-01-28T08:25:02;101794.7;;;9.7;46.5
72124;BME280;63818;37.134;-8.548;2023-01-28T08:29:48;101807.1;;;9.6;46.5
72124;BME280;63818;37.134;-8.548;2023-01-28T08:34:34;101803.0;;;9.7;46.4
72124;BME280;63818;37.134;-8.548;2023-01-28T08:39:28;101816.1;;;9.7;46.1
72124;BME280;63818;37.134;-8.548;2023-01-28T08:44:14;101804.8;;;9.8;46.2
72124;BME280;63818;37.134;-8.548;2023-01-28T08:49:00;101804.0;;;9.8;45.8
72124;BME280;63818;37.134;-8.548;2023-01-28T08:53:48;101818.2;;;9.8;45.9
72124;BME280;63818;37.134;-8.548;2023-01-28T08:58:35;101829.2;;;9.8;46.3
72124;BME280;63818;37.134;-8.548;2023-01-28T09:03:24;101817.4;;;9.8;46.3
72124;BME280;63818;37.134;-8.548;2023-01-28T09:08:12;101819.8;;;9.9;46.2
72124;BME280;63818;37.134;-8.548;2023-01-28T09:13:03;101819.5;;;9.9;45.9
72124;BME280;63818;37.134;-8.548;2023-01-28T09:17:55;101827.9;;;9.9;45.9
72124;BME280;63818;37.134;-8.548;2023-01-28T09:22:42;101817.6;;;10.0;45.9
72124;BME280;63818;37.134;-8.548;2023-01-28T09:27:28;101825.6;;;10.1;45.5
72124;BME280;63818;37.134;-8.548;2023-01-28T09:32:14;101836.9;;;10.2;45.2
72124;BME280;63818;37.134;-8.548;2023-01-28T09:37:00;101846.8;;;10.1;45.7
72124;BME280;63818;37.134;-8.548;2023-01-28T09:41:52;101855.7;;;10.2;45.6
72124;BME280;63818;37.134;-8.548;2023-01-28T09:46:46;101870.2;;;10.1;45.6
72124;BME280;63818;37.134;-8.548;2023-01-28T09:51:38;101860.5;;;10.2;45.7
72124;BME280;63818;37.134;-8.548;2023-01-28T09:56:29;101860.8;;;10.2;45.8
72124;BME280;63818;37.134;-8.548;2023-01-28T10:01:34;101853.5;;;10.2;45.9
72124;BME280;63818;37.134;-8.548;2023-01-28T10:06:28;101850.9;;;10.2;45.5
72124;BME280;63818;37.134;-8.548;2023-01-28T10:11:23;101854.8;;;10.3;46.0
72124;BME280;63818;37.134;-8.548;2023-01-28T10:16:18;101840.3;;;10.3;45.9
72124;BME280;63818;37.134;-8.548;2023-01-28T10:21:14;101856.9;;;10.3;45.5
72124;BME280;63818;37.134;-8.548;2023-01-28T10:26:08;101854.3;;;10.3;45.5
72124;BME280;63818;37.134;-8.548;2023-01-28T10:31:00;101859.9;;;10.4;45.9
72124;BME280;63818;37.134;-8.548;2023-01-28T10:35:55;101863.0;;;10.4;45.3
72124;BME280;63818;37.134;-8.548;2023-01-28T10:40:42;101856.3;;;10.5;45.6
72124;BME280;63818;37.134;-8.548;2023-01-28T10:45:33;101862.2;;;10.5;45.4
72124;BME280;63818;37.134;-8.548;2023-01-28T10:50:26;101854.1;;;10.5;45.7
72124;BME280;63818;37.134;-8.548;2023-01-28T10:55:16;101855.5;;;10.6;45.9
72124;BME280;63818;37.134;-8.548;2023-01-28T11:00:24;101856.5;;;10.6;45.3
72124;BME280;63818;37.134;-8.548;2023-01-28T11:05:17;101845.2;;;10.6;45.3
72124;BME280;63818;37.134;-8.548;2023-01-28T11:10:28;101846.5;;;10.6;45.9
72124;BME280;63818;37.134;-8.548;2023-01-28T11:15:17;101846.8;;;10.6;45.7
72124;BME280;63818;37.134;-8.548;2023-01-28T11:20:16;101841.7;;;10.7;46.0
72124;BME280;63818;37.134;-8.548;2023-01-28T11:25:12;101833.3;;;10.7;45.8
72124;BME280;63818;37.134;-8.548;2023-01-28T11:29:59;101832.8;;;10.7;45.2
72124;BME280;63818;37.134;-8.548;2023-01-28T11:34:52;101815.0;;;10.7;44.7
72124;BME280;63818;37.134;-8.548;2023-01-28T11:39:38;101816.1;;;10.8;44.5
72124;BME280;63818;37.134;-8.548;2023-01-28T11:44:26;101815.8;;;10.8;44.5
72124;BME280;63818;37.134;-8.548;2023-01-28T11:49:17;101810.7;;;10.8;44.2
72124;BME280;63818;37.134;-8.548;2023-01-28T11:54:34;101810.9;;;10.8;44.0
72124;BME280;63818;37.134;-8.548;2023-01-28T11:59:34;101792.3;;;10.9;44.2
72124;BME280;63818;37.134;-8.548;2023-01-28T12:04:38;101784.8;;;10.9;44.2
72124;BME280;63818;37.134;-8.548;2023-01-28T12:09:32;101772.7;;;10.9;44.3
72124;BME280;63818;37.134;-8.548;2023-01-28T12:14:26;101755.2;;;10.9;43.7
72124;BME280;63818;37.134;-8.548;2023-01-28T12:20:00;101743.0;;;11.0;43.3
72124;BME280;63818;37.134;-8.548;2023-01-28T12:25:00;101740.1;;;11.0;43.3
72124;BME280;63818;37.134;-8.548;2023-01-28T12:29:59;101737.9;;;11.0;43.1
72124;BME280;63818;37.134;-8.548;2023-01-28T12:35:01;101727.6;;;11.0;42.7
72124;BME280;63818;37.134;-8.548;2023-01-28T12:39:58;101720.9;;;11.1;42.0
72124;BME280;63818;37.134;-8.548;2023-01-28T12:45:01;101723.8;;;11.1;42.6
72124;BME280;63818;37.134;-8.548;2023-01-28T12:54:52;101710.0;;;11.2;42.6
72124;BME280;63818;37.134;-8.548;2023-01-28T12:59:44;101707.6;;;11.2;42.6
72124;BME280;63818;37.134;-8.548;2023-01-28T13:04:35;101697.0;;;11.2;42.4
72124;BME280;63818;37.134;-8.548;2023-01-28T13:09:24;101681.6;;;11.3;41.3
72124;BME280;63818;37.134;-8.548;2023-01-28T13:14:12;101685.7;;;11.3;41.5
72124;BME280;63818;37.134;-8.548;2023-01-28T13:19:24;101677.5;;;11.4;41.3
72124;BME280;63818;37.134;-8.548;2023-01-28T13:24:32;101663.2;;;11.4;40.7
72124;BME280;63818;37.134;-8.548;2023-01-28T13:29:26;101655.8;;;11.5;39.8
72124;BME280;63818;37.134;-8.548;2023-01-28T13:34:28;101649.9;;;11.5;39.5
72124;BME280;63818;37.134;-8.548;2023-01-28T13:39:18;101639.3;;;11.6;39.6
72124;BME280;63818;37.134;-8.548;2023-01-28T13:44:25;101639.2;;;11.6;39.3
72124;BME280;63818;37.134;-8.548;2023-01-28T13:49:16;101628.1;;;11.7;40.0
72124;BME280;63818;37.134;-8.548;2023-01-28T13:54:06;101630.4;;;11.8;40.4
72124;BME280;63818;37.134;-8.548;2023-01-28T13:59:54;101619.0;;;11.8;40.5
72124;BME280;63818;37.134;-8.548;2023-01-28T14:06:20;101609.7;;;11.9;39.8
72124;BME280;63818;37.134;-8.548;2023-01-28T14:11:16;101597.6;;;12.1;39.0
72124;BME280;63818;37.134;-8.548;2023-01-28T14:16:29;101595.8;;;12.2;38.5
72124;BME280;63818;37.134;-8.548;2023-01-28T14:21:20;101594.4;;;12.4;38.7
72124;BME280;63818;37.134;-8.548;2023-01-28T14:26:15;101586.4;;;12.6;37.6
72124;BME280;63818;37.134;-8.548;2023-01-28T14:31:09;101597.4;;;12.9;37.3
72124;BME280;63818;37.134;-8.548;2023-01-28T14:35:58;101593.0;;;13.4;36.3
72124;BME280;63818;37.134;-8.548;2023-01-28T14:40:49;101585.0;;;15.2;33.8
72124;BME280;63818;37.134;-8.548;2023-01-28T14:46:01;101568.9;;;20.7;27.9
72124;BME280;63818;37.134;-8.548;2023-01-28T14:51:11;101559.0;;;23.5;24.2
72124;BME280;63818;37.134;-8.548;2023-01-28T14:56:08;101546.3;;;24.7;21.0
72124;BME280;63818;37.134;-8.548;2023-01-28T15:00:59;101552.3;;;25.8;20.3
72124;BME280;63818;37.134;-8.548;2023-01-28T15:05:46;101554.8;;;26.2;20.0
72124;BME280;63818;37.134;-8.548;2023-01-28T15:10:37;101550.4;;;26.5;19.5
72124;BME280;63818;37.134;-8.548;2023-01-28T15:15:28;101546.5;;;26.6;19.2
72124;BME280;63818;37.134;-8.548;2023-01-28T15:20:19;101539.4;;;26.5;19.3
72124;BME280;63818;37.134;-8.548;2023-01-28T15:25:15;101546.5;;;26.4;19.1
72124;BME280;63818;37.134;-8.548;2023-01-28T15:30:02;101542.1;;;25.7;20.2
72124;BME280;63818;37.134;-8.548;2023-01-28T15:34:48;101545.2;;;25.6;20.1
72124;BME280;63818;37.134;-8.548;2023-01-28T15:39:36;101550.6;;;25.3;20.1
72124;BME280;63818;37.134;-8.548;2023-01-28T15:44:26;101556.3;;;24.9;20.7
72124;BME280;63818;37.134;-8.548;2023-01-28T15:49:16;101557.0;;;23.9;21.6
72124;BME280;63818;37.134;-8.548;2023-01-28T15:54:06;101570.8;;;22.7;22.8
72124;BME280;63818;37.134;-8.548;2023-01-28T15:59:01;101571.1;;;22.0;23.9
72124;BME280;63818;37.134;-8.548;2023-01-28T16:03:46;101584.8;;;21.2;24.7
72124;BME280;63818;37.134;-8.548;2023-01-28T16:08:39;101593.8;;;20.6;25.4
72124;BME280;63818;37.134;-8.548;2023-01-28T16:13:26;101584.9;;;20.0;26.5
72124;BME280;63818;37.134;-8.548;2023-01-28T16:18:25;101604.6;;;19.5;27.1
72124;BME280;63818;37.134;-8.548;2023-01-28T16:23:26;101599.2;;;19.0;27.8
72124;BME280;63818;37.134;-8.548;2023-01-28T16:28:17;101609.6;;;18.7;28.3
72124;BME280;63818;37.134;-8.548;2023-01-28T16:33:19;101611.7;;;18.4;28.8
72124;BME280;63818;37.134;-8.548;2023-01-28T16:38:13;101621.0;;;18.0;29.3
72124;BME280;63818;37.134;-8.548;2023-01-28T16:42:58;101624.0;;;17.4;29.8
72124;BME280;63818;37.134;-8.548;2023-01-28T16:47:52;101624.8;;;17.3;30.6
72124;BME280;63818;37.134;-8.548;2023-01-28T16:52:39;101631.5;;;17.1;30.9
72124;BME280;63818;37.134;-8.548;2023-01-28T16:57:25;101623.9;;;16.7;31.4
72124;BME280;63818;37.134;-8.548;2023-01-28T17:02:16;101632.0;;;16.4;31.7
72124;BME280;63818;37.134;-8.548;2023-01-28T17:07:01;101634.0;;;16.1;32.4
72124;BME280;63818;37.134;-8.548;2023-01-28T17:11:55;101639.7;;;15.9;32.5
72124;BME280;63818;37.134;-8.548;2023-01-28T17:16:42;101642.9;;;15.8;31.9
72124;BME280;63818;37.134;-8.548;2023-01-28T17:21:28;101643.1;;;15.7;31.8
72124;BME280;63818;37.134;-8.548;2023-01-28T17:26:15;101648.0;;;15.6;31.3
72124;BME280;63818;37.134;-8.548;2023-01-28T17:31:03;101654.3;;;15.4;31.7
72124;BME280;63818;37.134;-8.548;2023-01-28T17:35:54;101662.8;;;15.3;31.6
72124;BME280;63818;37.134;-8.548;2023-01-28T17:40:48;101671.2;;;15.2;32.8
72124;BME280;63818;37.134;-8.548;2023-01-28T17:45:37;101668.9;;;15.1;33.9
72124;BME280;63818;37.134;-8.548;2023-01-28T17:50:25;101675.2;;;15.0;34.6
72124;BME280;63818;37.134;-8.548;2023-01-28T17:55:12;101683.2;;;15.0;34.9
72124;BME280;63818;37.134;-8.548;2023-01-28T17:59:58;101682.6;;;14.9;35.2
72124;BME280;63818;37.134;-8.548;2023-01-28T18:04:50;101688.6;;;14.8;35.3
72124;BME280;63818;37.134;-8.548;2023-01-28T18:09:36;101703.0;;;14.8;35.7
72124;BME280;63818;37.134;-8.548;2023-01-28T18:14:24;101712.4;;;14.7;36.0
72124;BME280;63818;37.134;-8.548;2023-01-28T18:19:22;101716.8;;;14.6;36.2
72124;BME280;63818;37.134;-8.548;2023-01-28T18:24:08;101726.5;;;14.6;36.2
72124;BME280;63818;37.134;-8.548;2023-01-28T18:28:54;101736.6;;;14.5;36.3
72124;BME280;63818;37.134;-8.548;2023-01-28T18:33:40;101746.3;;;14.5;36.4
72124;BME280;63818;37.134;-8.548;2023-01-28T18:38:28;101746.9;;;14.4;36.9
72124;BME280;63818;37.134;-8.548;2023-01-28T18:43:14;101758.9;;;14.4;37.1
72124;BME280;63818;37.134;-8.548;2023-01-28T18:48:00;101759.8;;;14.3;37.2
72124;BME280;63818;37.134;-8.548;2023-01-28T18:52:50;101768.0;;;14.3;37.3
72124;BME280;63818;37.134;-8.548;2023-01-28T18:57:37;101777.1;;;14.2;37.7
72124;BME280;63818;37.134;-8.548;2023-01-28T19:02:23;101775.9;;;14.1;37.9
72124;BME280;63818;37.134;-8.548;2023-01-28T19:07:10;101788.4;;;14.1;38.2
72124;BME280;63818;37.134;-8.548;2023-01-28T19:11:56;101779.1;;;14.0;38.2
72124;BME280;63818;37.134;-8.548;2023-01-28T19:16:42;101779.5;;;14.0;38.3
72124;BME280;63818;37.134;-8.548;2023-01-28T19:21:30;101779.7;;;13.9;38.9
72124;BME280;63818;37.134;-8.548;2023-01-28T19:26:18;101783.6;;;13.9;39.2
72124;BME280;63818;37.134;-8.548;2023-01-28T19:31:08;101786.0;;;13.9;39.2
72124;BME280;63818;37.134;-8.548;2023-01-28T19:35:56;101784.0;;;13.5;39.6
72124;BME280;63818;37.134;-8.548;2023-01-28T19:40:42;101800.5;;;13.5;39.9
72124;BME280;63818;37.134;-8.548;2023-01-28T19:45:28;101801.7;;;13.6;39.8
72124;BME280;63818;37.134;-8.548;2023-01-28T19:50:14;101799.2;;;13.5;40.0
72124;BME280;63818;37.134;-8.548;2023-01-28T19:54:59;101801.1;;;13.3;40.1
72124;BME280;63818;37.134;-8.548;2023-01-28T19:59:48;101804.2;;;13.4;40.4
72124;BME280;63818;37.134;-8.548;2023-01-28T20:04:34;101814.8;;;13.4;40.5
72124;BME280;63818;37.134;-8.548;2023-01-28T20:09:20;101819.5;;;13.4;40.4
72124;BME280;63818;37.134;-8.548;2023-01-28T20:14:07;101823.3;;;13.4;40.7
72124;BME280;63818;37.134;-8.548;2023-01-28T20:18:55;101821.5;;;13.4;40.4
72124;BME280;63818;37.134;-8.548;2023-01-28T20:23:41;101826.4;;;13.4;40.6
72124;BME280;63818;37.134;-8.548;2023-01-28T20:28:27;101838.0;;;13.4;40.8
72124;BME280;63818;37.134;-8.548;2023-01-28T20:33:13;101834.0;;;13.2;41.3
72124;BME280;63818;37.134;-8.548;2023-01-28T20:37:59;101846.9;;;13.2;41.5
72124;BME280;63818;37.134;-8.548;2023-01-28T20:42:45;101838.9;;;13.0;41.5
72124;BME280;63818;37.134;-8.548;2023-01-28T20:47:33;101852.6;;;12.7;42.4
72124;BME280;63818;37.134;-8.548;2023-01-28T20:52:20;101849.0;;;12.6;42.6
72124;BME280;63818;37.134;-8.548;2023-01-28T20:57:05;101860.6;;;12.6;42.7
72124;BME280;63818;37.134;-8.548;2023-01-28T21:01:51;101856.1;;;12.5;42.4
72124;BME280;63818;37.134;-8.548;2023-01-28T21:06:37;101862.0;;;12.8;42.0
72124;BME280;63818;37.134;-8.548;2023-01-28T21:11:35;101868.2;;;12.7;42.0
72124;BME280;63818;37.134;-8.548;2023-01-28T21:16:22;101860.9;;;12.4;42.6
72124;BME280;63818;37.134;-8.548;2023-01-28T21:21:10;101861.2;;;12.2;43.0
72124;BME280;63818;37.134;-8.548;2023-01-28T21:26:15;101861.4;;;12.0;43.3
72124;BME280;63818;37.134;-8.548;2023-01-28T21:31:10;101865.7;;;11.8;43.9
72124;BME280;63818;37.134;-8.548;2023-01-28T21:35:58;101860.5;;;11.8;44.2
72124;BME280;63818;37.134;-8.548;2023-01-28T21:40:48;101864.7;;;11.7;44.3
72124;BME280;63818;37.134;-8.548;2023-01-28T21:45:34;101873.5;;;11.5;44.8
72124;BME280;63818;37.134;-8.548;2023-01-28T21:50:20;101872.3;;;11.4;44.8
72124;BME280;63818;37.134;-8.548;2023-01-28T21:55:11;101877.5;;;11.3;44.9
72124;BME280;63818;37.134;-8.548;2023-01-28T21:59:57;101882.5;;;11.3;44.9
72124;BME280;63818;37.134;-8.548;2023-01-28T22:04:44;101880.6;;;11.4;44.5
72124;BME280;63818;37.134;-8.548;2023-01-28T22:09:33;101866.0;;;11.5;44.5
72124;BME280;63818;37.134;-8.548;2023-01-28T22:14:20;101870.8;;;11.8;43.9
72124;BME280;63818;37.134;-8.548;2023-01-28T22:19:10;101872.6;;;11.9;43.8
72124;BME280;63818;37.134;-8.548;2023-01-28T22:23:57;101868.8;;;11.9;43.8
72124;BME280;63818;37.134;-8.548;2023-01-28T22:28:43;101875.3;;;11.9;43.7
72124;BME280;63818;37.134;-8.548;2023-01-28T22:33:29;101866.5;;;11.8;44.0
72124;BME280;63818;37.134;-8.548;2023-01-28T22:38:17;101860.0;;;11.8;44.0
72124;BME280;63818;37.134;-8.548;2023-01-28T22:43:04;101873.0;;;11.7;44.3
72124;BME280;63818;37.134;-8.548;2023-01-28T22:47:51;101860.5;;;11.6;44.4
72124;BME280;63818;37.134;-8.548;2023-01-28T22:52:37;101872.1;;;11.5;45.3
72124;BME280;63818;37.134;-8.548;2023-01-28T22:57:23;101875.1;;;11.5;45.9
72124;BME280;63818;37.134;-8.548;2023-01-28T23:02:09;101885.6;;;11.4;46.6
72124;BME280;63818;37.134;-8.548;2023-01-28T23:07:09;101889.1;;;11.5;48.1
72124;BME280;63818;37.134;-8.548;2023-01-28T23:11:56;101889.4;;;11.5;48.9
72124;BME280;63818;37.134;-8.548;2023-01-28T23:16:49;101884.1;;;11.3;49.2
72124;BME280;63818;37.134;-8.548;2023-01-28T23:21:35;101874.1;;;11.4;47.8
72124;BME280;63818;37.134;-8.548;2023-01-28T23:26:23;101877.7;;;11.3;47.3
72124;BME280;63818;37.134;-8.548;2023-01-28T23:31:13;101867.3;;;11.2;47.6
72124;BME280;63818;37.134;-8.548;2023-01-28T23:36:00;101862.3;;;11.1;49.3
72124;BME280;63818;37.134;-8.548;2023-01-28T23:40:46;101861.0;;;11.1;50.1
72124;BME280;63818;37.134;-8.548;2023-01-28T23:45:36;101865.6;;;11.0;50.3
72124;BME280;63818;37.134;-8.548;2023-01-28T23:50:22;101874.3;;;10.9;51.7
72124;BME280;63818;37.134;-8.548;2023-01-28T23:55:10;101882.0;;;11.0;52.0
72124;BME280;63818;37.134;-8.548;2023-01-28T23:59:56;101874.3;;;10.9;52.5
